New Ipswich, New Hampshire
Current Conditions -  °F | °C
As of 3:52 PM on Tuesday 25 Nov 2014 (Local Time) from KAFN Reporting Station
Clear Clear  
Wind Chill: 50°   Ceiling: Unl
Heat Index: 50°   Visibility: 10mi
Dew Point: 24°   Wind: 6mph
Humidity: 36%   Direction: NA
Pressure: 29.91"   Gusts: NA
Location:  42.75°N, 71.85°W
Report Text: KAFN 252052Z AUTO VRB05KT 10SM CLR 10/M04 A2991 RMK AO2 SLP134 T01001044 53014
Loading
Personal Weather Stations






























Interactive Weather Map New forecast layout! Learn more

10-Day Weather Forecast

Advertisements
Track Severe Weather on mobile